createdAt,value
2018-11-05T00:00:00.065Z,93.80
2018-11-05T00:02:34.966Z,93.60
2018-11-05T00:05:10.377Z,93.90
2018-11-05T00:07:45.650Z,94.00
2018-11-05T00:10:21.930Z,93.80
2018-11-05T00:12:58.650Z,93.60
2018-11-05T00:15:33.693Z,94.10
2018-11-05T00:18:09.267Z,94.70
2018-11-05T00:20:44.578Z,95.00
2018-11-05T00:23:20.010Z,94.50
2018-11-05T00:25:54.694Z,94.20
2018-11-05T00:28:30.922Z,93.80
2018-11-05T00:31:05.871Z,93.60
2018-11-05T00:33:40.685Z,93.50
2018-11-05T00:36:15.692Z,93.50
2018-11-05T00:38:50.398Z,93.50
2018-11-05T00:41:25.180Z,93.50
2018-11-05T00:44:08.066Z,93.60
2018-11-05T00:46:42.792Z,93.80
2018-11-05T00:49:17.623Z,93.80
2018-11-05T00:51:52.441Z,94.10
2018-11-05T00:54:27.134Z,93.80
2018-11-05T00:57:01.898Z,93.60
2018-11-05T00:59:37.613Z,93.50
2018-11-05T01:02:13.579Z,93.60
2018-11-05T01:04:48.678Z,93.80
2018-11-05T01:07:23.900Z,94.20
2018-11-05T01:09:58.726Z,94.20
2018-11-05T01:12:33.577Z,94.50
2018-11-05T01:15:12.289Z,94.30
2018-11-05T01:17:47.021Z,94.30
2018-11-05T01:20:22.052Z,94.10
2018-11-05T01:22:57.074Z,94.40
2018-11-05T01:25:31.934Z,94.50
2018-11-05T01:28:07.021Z,94.30
2018-11-05T01:30:42.093Z,94.10
2018-11-05T01:33:17.121Z,94.30
2018-11-05T01:35:52.183Z,94.30
2018-11-05T01:38:26.781Z,94.60
2018-11-05T01:41:01.771Z,94.70
2018-11-05T01:43:37.136Z,94.80
2018-11-05T01:46:11.969Z,95.10
2018-11-05T01:48:47.646Z,95.10
2018-11-05T01:51:22.458Z,94.90
2018-11-05T01:53:58.137Z,94.80
2018-11-05T01:56:33.245Z,95.30
2018-11-05T01:59:08.665Z,95.50
2018-11-05T02:01:44.054Z,95.20
2018-11-05T02:04:18.785Z,95.10
2018-11-05T02:06:53.677Z,95.00
2018-11-05T02:09:28.302Z,94.80
2018-11-05T02:12:03.145Z,94.90
2018-11-05T02:14:38.097Z,94.80
2018-11-05T02:17:13.120Z,94.70
2018-11-05T02:19:48.556Z,94.70
2018-11-05T02:22:23.392Z,94.80
2018-11-05T02:24:58.257Z,94.80
2018-11-05T02:27:32.942Z,94.80
2018-11-05T02:30:10.346Z,94.80
2018-11-05T02:32:45.776Z,94.70
2018-11-05T02:35:20.624Z,94.70
2018-11-05T02:37:56.106Z,94.70
2018-11-05T02:40:31.081Z,94.90
2018-11-05T02:43:06.190Z,94.90
2018-11-05T02:45:41.119Z,95.20
2018-11-05T02:48:16.071Z,95.40
2018-11-05T02:50:50.995Z,95.40
2018-11-05T02:53:25.891Z,95.40
2018-11-05T02:56:00.714Z,95.30
2018-11-05T02:58:35.402Z,95.10
2018-11-05T03:01:10.346Z,95.10
2018-11-05T03:03:45.590Z,95.20
2018-11-05T03:06:20.473Z,95.60
2018-11-05T03:08:55.315Z,96.10
2018-11-05T03:11:30.177Z,95.70
2018-11-05T03:14:05.022Z,95.90
2018-11-05T03:16:40.346Z,95.90
2018-11-05T03:19:16.401Z,95.90
2018-11-05T03:21:51.333Z,96.00
2018-11-05T03:24:26.720Z,96.10
2018-11-05T03:27:01.946Z,96.10
2018-11-05T03:29:37.143Z,96.30
2018-11-05T03:32:12.483Z,96.40
2018-11-05T03:34:47.367Z,96.40
2018-11-05T03:37:22.026Z,96.40
2018-11-05T03:39:56.937Z,96.50
2018-11-05T03:42:32.025Z,96.60
2018-11-05T03:45:08.617Z,96.70
2018-11-05T03:47:43.532Z,96.80
2018-11-05T03:50:19.118Z,97.00
2018-11-05T03:52:53.860Z,97.00
2018-11-05T03:55:28.620Z,97.20
2018-11-05T03:58:05.080Z,97.20
2018-11-05T04:00:41.338Z,97.30
2018-11-05T04:03:16.185Z,97.30
2018-11-05T04:05:51.386Z,97.60
2018-11-05T04:08:26.053Z,97.20
2018-11-05T04:11:00.964Z,97.10
2018-11-05T04:13:35.793Z,97.30
2018-11-05T04:16:10.851Z,97.60
2018-11-05T04:18:46.366Z,97.80
2018-11-05T04:21:20.997Z,98.00
2018-11-05T04:23:56.647Z,97.90
2018-11-05T04:26:32.229Z,97.70
2018-11-05T04:29:08.898Z,97.80
2018-11-05T04:31:43.703Z,97.80
2018-11-05T04:34:18.351Z,98.00
2018-11-05T04:36:53.176Z,97.80
2018-11-05T04:39:28.453Z,97.80
2018-11-05T04:42:04.485Z,98.10
2018-11-05T04:44:39.431Z,97.80
2018-11-05T04:47:14.202Z,97.60
2018-11-05T04:49:49.018Z,97.50
2018-11-05T04:52:24.209Z,97.30
2018-11-05T04:54:58.898Z,97.30
2018-11-05T04:57:34.285Z,97.70
2018-11-05T05:00:12.078Z,97.70
2018-11-05T05:02:47.397Z,97.50
2018-11-05T05:05:22.275Z,97.50
2018-11-05T05:07:57.862Z,97.30
2018-11-05T05:10:32.598Z,97.10
2018-11-05T05:13:07.764Z,97.30
2018-11-05T05:15:42.597Z,97.10
2018-11-05T05:18:17.416Z,96.90
2018-11-05T05:20:52.210Z,96.70
2018-11-05T05:23:27.226Z,96.70
2018-11-05T05:26:02.443Z,96.70
2018-11-05T05:28:37.428Z,96.70
2018-11-05T05:31:12.098Z,96.70
2018-11-05T05:33:46.926Z,97.00
2018-11-05T05:36:21.686Z,97.60
2018-11-05T05:38:57.138Z,97.80
2018-11-05T05:41:32.307Z,97.40
2018-11-05T05:44:07.031Z,97.20
2018-11-05T05:46:41.868Z,96.90
2018-11-05T05:49:16.634Z,96.80
2018-11-05T05:51:51.518Z,96.60
2018-11-05T05:54:26.657Z,96.60
2018-11-05T05:57:01.780Z,97.30
2018-11-05T05:59:36.614Z,97.20
2018-11-05T06:02:11.669Z,96.90
2018-11-05T06:04:46.549Z,96.80
2018-11-05T06:07:21.502Z,96.40
2018-11-05T06:09:56.923Z,96.60
2018-11-05T06:12:31.573Z,96.40
2018-11-05T06:15:09.240Z,96.50
2018-11-05T06:17:43.967Z,96.30
2018-11-05T06:20:20.525Z,96.20
2018-11-05T06:22:55.230Z,96.00
2018-11-05T06:25:30.338Z,96.00
2018-11-05T06:28:05.637Z,95.90
2018-11-05T06:30:40.706Z,95.90
2018-11-05T06:33:17.652Z,96.00
2018-11-05T06:35:52.673Z,96.10
2018-11-05T06:38:29.241Z,96.20
2018-11-05T06:41:05.525Z,96.10
2018-11-05T06:43:40.681Z,96.00
2018-11-05T06:46:16.374Z,96.00
2018-11-05T06:48:51.213Z,96.00
2018-11-05T06:51:26.270Z,95.90
2018-11-05T06:54:01.162Z,96.00
2018-11-05T06:56:35.998Z,95.70
2018-11-05T06:59:10.790Z,95.90
2018-11-05T07:01:45.551Z,96.10
2018-11-05T07:04:20.478Z,96.20
2018-11-05T07:06:55.383Z,96.30
2018-11-05T07:09:30.358Z,96.40
2018-11-05T07:12:05.503Z,96.50
2018-11-05T07:14:40.225Z,96.50
2018-11-05T07:17:15.009Z,97.10
2018-11-05T07:19:49.877Z,97.40
2018-11-05T07:22:24.725Z,97.10
2018-11-05T07:24:59.408Z,96.80
2018-11-05T07:27:34.225Z,96.70
2018-11-05T07:30:13.303Z,97.00
2018-11-05T07:32:49.961Z,97.10
2018-11-05T07:35:24.631Z,97.00
2018-11-05T07:37:59.465Z,96.90
2018-11-05T07:40:34.415Z,96.80
2018-11-05T07:43:10.150Z,96.90
2018-11-05T07:45:45.250Z,96.90
2018-11-05T07:48:20.332Z,96.90
2018-11-05T07:50:55.255Z,97.00
2018-11-05T07:53:30.153Z,97.20
2018-11-05T07:56:05.606Z,97.00
2018-11-05T07:58:40.391Z,97.00
2018-11-05T08:01:15.086Z,97.10
2018-11-05T08:03:49.900Z,97.30
2018-11-05T08:06:24.834Z,97.20
2018-11-05T08:08:59.470Z,97.10
2018-11-05T08:11:34.339Z,97.10
2018-11-05T08:14:09.552Z,97.20
2018-11-05T08:16:44.584Z,97.30
2018-11-05T08:19:19.534Z,97.50
2018-11-05T08:21:54.249Z,97.60
2018-11-05T08:24:29.093Z,97.50
2018-11-05T08:27:04.055Z,97.70
2018-11-05T08:29:39.494Z,97.80
2018-11-05T08:32:15.356Z,97.60
2018-11-05T08:34:49.994Z,97.50
2018-11-05T08:37:25.107Z,97.30
2018-11-05T08:39:59.921Z,97.50
2018-11-05T08:42:35.597Z,97.40
2018-11-05T08:45:11.992Z,98.10
2018-11-05T08:47:47.066Z,98.10
2018-11-05T08:50:23.261Z,98.10
2018-11-05T08:52:58.255Z,97.90
2018-11-05T08:55:33.031Z,97.90
2018-11-05T08:58:07.761Z,97.80
2018-11-05T09:00:47.895Z,97.90
2018-11-05T09:03:24.078Z,98.30
2018-11-05T09:05:59.854Z,98.20
2018-11-05T09:08:34.905Z,98.40
2018-11-05T09:11:10.136Z,98.20
2018-11-05T09:13:44.728Z,97.80
2018-11-05T09:16:19.606Z,98.10
2018-11-05T09:18:54.627Z,98.10
2018-11-05T09:21:30.193Z,98.00
2018-11-05T09:24:05.021Z,98.10
2018-11-05T09:26:39.705Z,98.20
2018-11-05T09:29:14.518Z,98.30
2018-11-05T09:31:49.307Z,98.10
2018-11-05T09:34:24.726Z,98.10
2018-11-05T09:37:00.069Z,98.00
2018-11-05T09:39:35.114Z,98.00
2018-11-05T09:42:10.494Z,98.30
2018-11-05T09:44:45.900Z,98.20
2018-11-05T09:47:20.759Z,98.20
2018-11-05T09:49:55.694Z,98.10
2018-11-05T09:52:30.894Z,97.30
2018-11-05T09:55:06.718Z,97.00
2018-11-05T09:57:41.875Z,96.80
2018-11-05T10:00:22.170Z,96.60
2018-11-05T10:03:28.024Z,96.10
2018-11-05T10:06:02.722Z,96.00
2018-11-05T10:08:38.237Z,95.60
2018-11-05T10:11:13.681Z,94.50
2018-11-05T10:13:48.521Z,94.30
2018-11-05T10:16:23.415Z,94.10
2018-11-05T10:18:59.297Z,93.60
2018-11-05T10:21:34.590Z,93.30
2018-11-05T10:24:09.473Z,93.00
2018-11-05T10:26:44.522Z,92.40
2018-11-05T10:29:19.241Z,91.40
2018-11-05T10:31:54.302Z,90.30
2018-11-05T10:34:29.005Z,89.90
2018-11-05T10:37:04.453Z,86.50
2018-11-05T10:39:39.790Z,82.80
2018-11-05T10:42:15.138Z,78.70
2018-11-05T10:44:50.522Z,77.30
2018-11-05T10:47:26.022Z,75.30
2018-11-05T10:50:01.232Z,73.70
2018-11-05T10:52:37.091Z,70.90
2018-11-05T10:55:12.499Z,67.90
2018-11-05T10:57:48.320Z,69.40
2018-11-05T11:00:28.643Z,69.40
2018-11-05T11:03:09.541Z,67.80
2018-11-05T11:05:45.030Z,64.80
2018-11-05T11:08:20.537Z,60.70
2018-11-05T11:10:55.761Z,57.80
2018-11-05T11:13:31.006Z,55.40
2018-11-05T11:16:06.286Z,53.40
2018-11-05T11:18:41.676Z,54.50
2018-11-05T11:21:16.933Z,55.40
2018-11-05T11:23:52.768Z,52.90
2018-11-05T11:26:27.624Z,50.70
2018-11-05T11:29:02.828Z,48.40
2018-11-05T11:31:44.661Z,48.50
2018-11-05T11:34:19.790Z,47.60
2018-11-05T11:36:54.908Z,48.90
2018-11-05T11:39:30.159Z,49.30
2018-11-05T11:42:05.480Z,48.60
2018-11-05T11:44:41.458Z,47.10
2018-11-05T11:47:17.719Z,49.60
2018-11-05T11:49:53.175Z,49.90
2018-11-05T11:52:28.728Z,49.20
2018-11-05T11:55:05.281Z,49.00
2018-11-05T11:57:41.146Z,47.60
2018-11-05T12:00:18.335Z,45.80
2018-11-05T12:02:54.205Z,45.30
2018-11-05T12:05:29.744Z,45.00
2018-11-05T12:08:04.950Z,44.00
2018-11-05T12:10:40.794Z,43.40
2018-11-05T12:13:15.862Z,42.10
2018-11-05T12:15:50.890Z,41.90
2018-11-05T12:18:26.017Z,41.10
2018-11-05T12:21:01.171Z,40.70
2018-11-05T12:23:36.422Z,40.30
2018-11-05T12:26:11.554Z,40.90
2018-11-05T12:28:47.800Z,34.00
2018-11-05T12:31:22.852Z,37.00
2018-11-05T12:33:58.424Z,38.80
2018-11-05T12:36:33.944Z,40.00
2018-11-05T12:39:10.642Z,40.50
2018-11-05T12:41:45.734Z,39.80
2018-11-05T12:44:21.647Z,40.60
2018-11-05T12:46:56.910Z,40.80
2018-11-05T12:49:32.160Z,41.70
2018-11-05T12:52:07.316Z,43.40
2018-11-05T12:54:42.718Z,45.60
2018-11-05T12:57:18.596Z,48.50
2018-11-05T12:59:54.110Z,49.20
2018-11-05T13:02:29.694Z,51.60
2018-11-05T13:05:06.196Z,53.10
2018-11-05T13:07:41.803Z,52.80
2018-11-05T13:10:17.119Z,50.30
2018-11-05T13:12:52.450Z,49.00
2018-11-05T13:15:28.175Z,46.50
2018-11-05T13:18:03.321Z,46.40
2018-11-05T13:20:38.393Z,45.40
2018-11-05T13:23:13.445Z,44.50
2018-11-05T13:25:49.213Z,45.00
2018-11-05T13:28:24.247Z,45.40
2018-11-05T13:31:00.187Z,45.70
2018-11-05T13:33:35.958Z,45.60
2018-11-05T13:36:11.122Z,44.40
2018-11-05T13:38:46.399Z,43.70
2018-11-05T13:41:21.626Z,45.60
2018-11-05T13:43:57.038Z,47.30
2018-11-05T13:46:32.863Z,48.80
2018-11-05T13:49:09.445Z,50.20
2018-11-05T13:51:44.404Z,51.20
2018-11-05T13:54:19.933Z,51.70
2018-11-05T13:56:55.566Z,50.50
2018-11-05T13:59:31.187Z,47.70
2018-11-05T14:02:07.135Z,46.30
2018-11-05T14:04:42.281Z,44.70
2018-11-05T14:07:17.452Z,45.60
2018-11-05T14:09:52.839Z,47.40
2018-11-05T14:12:28.513Z,47.50
2018-11-05T14:15:03.666Z,47.60
2018-11-05T14:17:39.770Z,45.80
2018-11-05T14:20:16.644Z,45.60
2018-11-05T14:22:51.934Z,45.20
2018-11-05T14:25:27.721Z,44.60
2018-11-05T14:28:03.248Z,43.60
2018-11-05T14:30:38.284Z,43.70
2018-11-05T14:33:13.606Z,43.90
2018-11-05T14:35:48.618Z,43.90
2018-11-05T14:38:23.936Z,44.20
2018-11-05T14:40:59.681Z,44.60
2018-11-05T14:43:35.460Z,46.20
2018-11-05T14:46:11.069Z,47.10
2018-11-05T14:48:46.617Z,48.40
2018-11-05T14:51:22.117Z,49.20
2018-11-05T14:53:57.540Z,49.60
2018-11-05T14:56:33.656Z,49.00
2018-11-05T14:59:08.926Z,49.80
2018-11-05T15:01:45.365Z,51.50
2018-11-05T15:04:20.743Z,52.80
2018-11-05T15:06:56.668Z,53.90
2018-11-05T15:09:31.979Z,55.00
2018-11-05T15:12:13.913Z,56.10
2018-11-05T15:14:49.402Z,56.60
2018-11-05T15:17:24.780Z,57.50
2018-11-05T15:20:01.310Z,58.20
2018-11-05T15:22:36.959Z,58.70
2018-11-05T15:25:13.390Z,59.20
2018-11-05T15:27:48.797Z,60.40
2018-11-05T15:30:24.202Z,61.80
2018-11-05T15:32:59.635Z,62.90
2018-11-05T15:35:35.333Z,63.70
2018-11-05T15:38:10.707Z,65.20
2018-11-05T15:40:46.001Z,65.90
2018-11-05T15:43:21.496Z,66.50
2018-11-05T15:45:57.166Z,66.80
2018-11-05T15:48:32.440Z,67.50
2018-11-05T15:51:08.661Z,68.10
2018-11-05T15:53:44.172Z,69.00
2018-11-05T15:56:19.697Z,70.00
2018-11-05T15:58:54.401Z,70.10
2018-11-05T16:01:29.338Z,71.20
2018-11-05T16:04:04.386Z,71.10
2018-11-05T16:06:39.211Z,71.30
2018-11-05T16:09:14.630Z,72.30
2018-11-05T16:11:49.716Z,73.00
2018-11-05T16:14:24.442Z,73.40
2018-11-05T16:17:00.014Z,73.40
2018-11-05T16:19:35.039Z,74.20
2018-11-05T16:22:09.709Z,75.50
2018-11-05T16:24:45.354Z,75.30
2018-11-05T16:27:21.601Z,75.70
2018-11-05T16:29:56.264Z,75.90
2018-11-05T16:32:31.247Z,76.60
2018-11-05T16:35:06.753Z,76.80
2018-11-05T16:37:42.568Z,77.40
2018-11-05T16:40:18.510Z,77.90
2018-11-05T16:42:53.166Z,78.40
2018-11-05T16:45:28.085Z,78.80
2018-11-05T16:48:03.253Z,79.10
2018-11-05T16:50:37.939Z,79.40
2018-11-05T16:53:12.753Z,79.70
2018-11-05T16:55:47.538Z,80.50
2018-11-05T16:58:22.429Z,80.60
2018-11-05T17:00:57.428Z,80.90
2018-11-05T17:03:32.932Z,80.80
2018-11-05T17:06:07.735Z,81.30
2018-11-05T17:08:42.534Z,81.30
2018-11-05T17:11:17.527Z,81.10
2018-11-05T17:13:52.720Z,81.90
2018-11-05T17:16:28.385Z,82.00
2018-11-05T17:19:04.069Z,82.40
2018-11-05T17:21:39.209Z,82.70
2018-11-05T17:24:14.019Z,82.30
2018-11-05T17:26:49.018Z,82.60
2018-11-05T17:29:23.955Z,82.70
2018-11-05T17:31:59.967Z,82.70
2018-11-05T17:34:34.606Z,83.20
2018-11-05T17:37:09.412Z,83.80
2018-11-05T17:39:45.164Z,82.80
2018-11-05T17:42:20.766Z,83.10
2018-11-05T17:44:55.541Z,83.30
2018-11-05T17:47:30.394Z,83.40
2018-11-05T17:50:06.867Z,83.20
2018-11-05T17:52:42.153Z,84.00
2018-11-05T17:55:16.887Z,84.60
2018-11-05T17:57:51.901Z,85.10
2018-11-05T18:00:26.819Z,84.70
2018-11-05T18:03:02.895Z,84.10
2018-11-05T18:05:37.632Z,84.60
2018-11-05T18:08:12.402Z,84.80
2018-11-05T18:10:48.029Z,85.50
2018-11-05T18:13:29.431Z,85.60
2018-11-05T18:16:04.619Z,86.40
2018-11-05T18:18:40.502Z,86.00
2018-11-05T18:21:15.445Z,86.60
2018-11-05T18:23:50.403Z,86.80
2018-11-05T18:26:25.355Z,87.00
2018-11-05T18:29:00.238Z,86.50
2018-11-05T18:31:35.205Z,87.10
2018-11-05T18:34:10.257Z,87.10
2018-11-05T18:36:46.074Z,88.00
2018-11-05T18:39:21.761Z,88.20
2018-11-05T18:41:57.062Z,88.40
2018-11-05T18:44:31.990Z,88.50
2018-11-05T18:47:06.864Z,88.50
2018-11-05T18:49:42.308Z,88.60
2018-11-05T18:52:17.094Z,88.20
2018-11-05T18:54:51.969Z,88.30
2018-11-05T18:57:26.787Z,88.40
2018-11-05T19:00:01.600Z,88.60
2018-11-05T19:02:36.349Z,89.10
2018-11-05T19:05:11.393Z,88.90
2018-11-05T19:07:46.502Z,89.10
2018-11-05T19:10:21.377Z,89.80
2018-11-05T19:12:56.691Z,89.90
2018-11-05T19:15:31.630Z,90.20
2018-11-05T19:18:07.294Z,90.40
2018-11-05T19:20:42.829Z,90.10
2018-11-05T19:23:17.709Z,90.00
2018-11-05T19:25:52.693Z,89.70
2018-11-05T19:28:27.634Z,90.80
2018-11-05T19:31:02.746Z,90.80
2018-11-05T19:33:37.724Z,90.60
2018-11-05T19:36:13.194Z,90.30
2018-11-05T19:38:48.159Z,90.30
2018-11-05T19:41:23.161Z,90.40
2018-11-05T19:43:58.981Z,90.70
2018-11-05T19:46:33.791Z,90.50
2018-11-05T19:49:08.562Z,90.50
2018-11-05T19:51:43.510Z,90.50
2018-11-05T19:54:18.486Z,90.90
2018-11-05T19:56:53.370Z,91.20
2018-11-05T19:59:28.111Z,91.50
2018-11-05T20:02:03.918Z,91.30
2018-11-05T20:04:39.444Z,90.60
2018-11-05T20:07:14.255Z,90.70
2018-11-05T20:09:49.351Z,90.70
2018-11-05T20:12:24.258Z,91.40
2018-11-05T20:15:00.237Z,91.60
2018-11-05T20:17:35.454Z,91.50
2018-11-05T20:20:12.106Z,91.30
2018-11-05T20:22:47.032Z,91.60
2018-11-05T20:25:22.298Z,91.60
2018-11-05T20:27:57.238Z,91.70
2018-11-05T20:30:32.058Z,91.90
2018-11-05T20:33:07.596Z,92.00
2018-11-05T20:35:42.425Z,92.10
2018-11-05T20:38:17.683Z,92.50
2018-11-05T20:40:52.427Z,91.90
2018-11-05T20:43:28.660Z,92.80
2018-11-05T20:46:03.411Z,93.00
2018-11-05T20:48:38.428Z,93.10
2018-11-05T20:51:13.523Z,92.70
2018-11-05T20:53:48.531Z,92.90
2018-11-05T20:56:23.559Z,92.60
2018-11-05T20:58:58.309Z,92.90
2018-11-05T21:01:33.133Z,92.80
2018-11-05T21:04:08.038Z,92.50
2018-11-05T21:06:42.948Z,92.40
2018-11-05T21:09:18.035Z,92.70
2018-11-05T21:11:55.245Z,92.60
2018-11-05T21:14:30.627Z,92.60
2018-11-05T21:17:06.262Z,93.00
2018-11-05T21:19:41.122Z,93.00
2018-11-05T21:22:16.268Z,92.90
2018-11-05T21:24:51.298Z,92.70
2018-11-05T21:27:26.064Z,92.90
2018-11-05T21:30:01.019Z,93.00
2018-11-05T21:32:36.082Z,93.10
2018-11-05T21:35:13.028Z,93.20
2018-11-05T21:37:48.217Z,92.90
2018-11-05T21:40:23.142Z,92.80
2018-11-05T21:42:58.045Z,92.50
2018-11-05T21:45:32.839Z,92.00
2018-11-05T21:48:07.674Z,92.20
2018-11-05T21:50:43.155Z,92.80
2018-11-05T21:53:18.001Z,92.90
2018-11-05T21:55:53.379Z,92.30
2018-11-05T21:58:28.614Z,92.20
2018-11-05T22:01:04.010Z,92.90
2018-11-05T22:03:38.181Z,92.80
2018-11-05T22:06:12.356Z,92.80
2018-11-05T22:08:46.382Z,93.60
2018-11-05T22:11:20.158Z,94.20
2018-11-05T22:13:55.105Z,93.70
2018-11-05T22:16:29.769Z,93.10
2018-11-05T22:19:04.898Z,93.40
2018-11-05T22:21:39.678Z,91.40
2018-11-05T22:24:14.758Z,92.50
2018-11-05T22:26:50.090Z,92.60
2018-11-05T22:29:25.306Z,92.10
2018-11-05T22:32:00.361Z,91.40
2018-11-05T22:34:35.567Z,91.40
2018-11-05T22:37:10.585Z,91.90
2018-11-05T22:39:45.603Z,92.20
2018-11-05T22:42:20.757Z,92.50
2018-11-05T22:44:55.826Z,92.90
2018-11-05T22:47:31.148Z,93.00
2018-11-05T22:50:06.906Z,93.20
2018-11-05T22:52:42.577Z,93.40
2018-11-05T22:55:18.146Z,93.40
2018-11-05T22:57:53.198Z,93.30
2018-11-05T23:00:33.496Z,93.40
2018-11-05T23:03:13.522Z,93.70
2018-11-05T23:05:48.251Z,93.90
2018-11-05T23:08:22.841Z,94.10
2018-11-05T23:10:58.041Z,94.50
2018-11-05T23:13:32.977Z,94.60
2018-11-05T23:16:08.434Z,94.60
2018-11-05T23:18:44.191Z,94.50
2018-11-05T23:21:19.727Z,93.70
2018-11-05T23:23:54.959Z,93.70
2018-11-05T23:26:30.466Z,93.90
2018-11-05T23:29:06.273Z,93.80
2018-11-05T23:31:41.900Z,92.20
2018-11-05T23:34:16.771Z,92.80
2018-11-05T23:36:52.984Z,92.10
2018-11-05T23:39:27.825Z,92.90
2018-11-05T23:42:03.288Z,93.20
2018-11-05T23:44:38.498Z,93.00
2018-11-05T23:47:14.265Z,92.60
2018-11-05T23:49:49.153Z,92.60
2018-11-05T23:52:24.652Z,91.80
2018-11-05T23:54:59.865Z,92.90
2018-11-05T23:57:34.939Z,91.70
